sensor_id;sensor_type;location;lat;lon;timestamp;pressure;altitude;pressure_sealevel;temperature;humidity
68712;BME280;55690;51.566;19.198;2023-09-19T00:01:02;100947.73;;;19.99;94.08
68712;BME280;55690;51.566;19.198;2023-09-19T00:05:09;100943.77;;;20.01;93.61
68712;BME280;55690;51.566;19.198;2023-09-19T00:09:14;100934.64;;;20.01;93.63
68712;BME280;55690;51.566;19.198;2023-09-19T00:13:20;100936.52;;;20.00;93.53
68712;BME280;55690;51.566;19.198;2023-09-19T00:17:27;100932.41;;;20.04;93.50
68712;BME280;55690;51.566;19.198;2023-09-19T00:21:32;100929.65;;;20.04;93.73
68712;BME280;55690;51.566;19.198;2023-09-19T00:25:39;100937.39;;;20.01;93.59
68712;BME280;55690;51.566;19.198;2023-09-19T00:29:45;100935.16;;;20.04;93.83
68712;BME280;55690;51.566;19.198;2023-09-19T00:33:51;100931.02;;;19.92;94.64
68712;BME280;55690;51.566;19.198;2023-09-19T00:37:57;100923.95;;;19.98;94.41
68712;BME280;55690;51.566;19.198;2023-09-19T00:42:04;100932.21;;;19.98;94.87
68712;BME280;55690;51.566;19.198;2023-09-19T00:46:10;100917.41;;;19.90;95.22
68712;BME280;55690;51.566;19.198;2023-09-19T00:50:22;100917.06;;;19.85;95.74
68712;BME280;55690;51.566;19.198;2023-09-19T00:54:25;100921.02;;;19.83;95.36
68712;BME280;55690;51.566;19.198;2023-09-19T00:58:29;100913.55;;;19.67;96.72
68712;BME280;55690;51.566;19.198;2023-09-19T01:02:36;100913.73;;;19.66;95.70
68712;BME280;55690;51.566;19.198;2023-09-19T01:06:40;100913.89;;;19.64;95.84
68712;BME280;55690;51.566;19.198;2023-09-19T01:10:52;100901.65;;;19.58;95.77
68712;BME280;55690;51.566;19.198;2023-09-19T01:15:00;100900.29;;;19.63;95.60
68712;BME280;55690;51.566;19.198;2023-09-19T01:31:51;100890.16;;;19.71;95.05
68712;BME280;55690;51.566;19.198;2023-09-19T01:35:55;100888.43;;;19.70;94.78
68712;BME280;55690;51.566;19.198;2023-09-19T01:40:02;100876.73;;;19.76;94.60
68712;BME280;55690;51.566;19.198;2023-09-19T01:44:22;100873.45;;;19.73;94.62
68712;BME280;55690;51.566;19.198;2023-09-19T02:01:08;100868.99;;;19.80;94.24
68712;BME280;55690;51.566;19.198;2023-09-19T02:05:22;100857.79;;;19.73;94.13
68712;BME280;55690;51.566;19.198;2023-09-19T02:09:25;100856.94;;;19.81;94.05
68712;BME280;55690;51.566;19.198;2023-09-19T02:13:27;100855.90;;;19.82;94.17
68712;BME280;55690;51.566;19.198;2023-09-19T02:17:29;100859.70;;;19.89;93.67
68712;BME280;55690;51.566;19.198;2023-09-19T02:21:32;100871.39;;;19.75;95.62
68712;BME280;55690;51.566;19.198;2023-09-19T02:25:33;100863.13;;;19.75;95.17
68712;BME280;55690;51.566;19.198;2023-09-19T02:29:36;100876.21;;;19.73;95.62
68712;BME280;55690;51.566;19.198;2023-09-19T02:33:37;100876.55;;;19.70;95.48
68712;BME280;55690;51.566;19.198;2023-09-19T02:37:40;100865.36;;;19.71;95.07
68712;BME280;55690;51.566;19.198;2023-09-19T02:41:41;100877.58;;;19.69;96.16
68712;BME280;55690;51.566;19.198;2023-09-19T02:45:43;100872.91;;;19.61;96.37
68712;BME280;55690;51.566;19.198;2023-09-19T02:49:44;100877.55;;;19.60;97.54
68712;BME280;55690;51.566;19.198;2023-09-19T02:53:45;100875.84;;;19.59;96.66
68712;BME280;55690;51.566;19.198;2023-09-19T02:57:51;100866.53;;;19.60;97.59
68712;BME280;55690;51.566;19.198;2023-09-19T03:01:53;100858.59;;;19.49;98.06
68712;BME280;55690;51.566;19.198;2023-09-19T03:05:55;100860.64;;;19.47;97.70
68712;BME280;55690;51.566;19.198;2023-09-19T03:09:57;100853.41;;;19.46;97.79
68712;BME280;55690;51.566;19.198;2023-09-19T03:13:59;100860.59;;;19.31;97.94
68712;BME280;55690;51.566;19.198;2023-09-19T03:18:00;100849.57;;;19.31;97.44
68712;BME280;55690;51.566;19.198;2023-09-19T03:22:04;100849.54;;;19.23;97.86
68712;BME280;55690;51.566;19.198;2023-09-19T03:26:10;100838.02;;;19.27;97.84
68712;BME280;55690;51.566;19.198;2023-09-19T03:30:16;100836.16;;;19.36;97.01
68712;BME280;55690;51.566;19.198;2023-09-19T03:34:22;100827.70;;;19.30;97.42
68712;BME280;55690;51.566;19.198;2023-09-19T03:38:28;100829.24;;;19.24;97.49
68712;BME280;55690;51.566;19.198;2023-09-19T03:42:34;100830.98;;;19.33;97.56
68712;BME280;55690;51.566;19.198;2023-09-19T03:46:41;100834.94;;;19.31;97.95
68712;BME280;55690;51.566;19.198;2023-09-19T03:50:47;100829.27;;;19.32;97.93
68712;BME280;55690;51.566;19.198;2023-09-19T03:54:53;100834.10;;;19.38;98.35
68712;BME280;55690;51.566;19.198;2023-09-19T03:59:00;100835.47;;;19.34;99.00
68712;BME280;55690;51.566;19.198;2023-09-19T04:03:05;100831.85;;;19.34;97.54
68712;BME280;55690;51.566;19.198;2023-09-19T04:07:11;100836.63;;;19.23;98.33
68712;BME280;55690;51.566;19.198;2023-09-19T04:11:19;100833.55;;;19.26;97.77
68712;BME280;55690;51.566;19.198;2023-09-19T04:15:24;100839.58;;;19.30;97.97
68712;BME280;55690;51.566;19.198;2023-09-19T04:19:30;100834.44;;;19.35;98.49
68712;BME280;55690;51.566;19.198;2023-09-19T04:23:36;100842.70;;;19.35;97.55
68712;BME280;55690;51.566;19.198;2023-09-19T04:27:44;100857.88;;;19.47;98.45
68712;BME280;55690;51.566;19.198;2023-09-19T04:31:48;100850.48;;;19.48;98.86
68712;BME280;55690;51.566;19.198;2023-09-19T04:35:55;100866.52;;;19.52;98.39
68712;BME280;55690;51.566;19.198;2023-09-19T04:40:01;100858.59;;;19.49;98.90
68712;BME280;55690;51.566;19.198;2023-09-19T04:44:07;100859.83;;;19.63;97.35
68712;BME280;55690;51.566;19.198;2023-09-19T04:48:13;100863.78;;;19.60;98.20
68712;BME280;55690;51.566;19.198;2023-09-19T04:52:19;100869.48;;;19.67;98.43
68712;BME280;55690;51.566;19.198;2023-09-19T04:56:25;100868.93;;;19.55;98.71
68712;BME280;55690;51.566;19.198;2023-09-19T05:00:32;100877.89;;;19.57;98.38
68712;BME280;55690;51.566;19.198;2023-09-19T05:04:38;100870.63;;;19.48;100.00
68712;BME280;55690;51.566;19.198;2023-09-19T05:08:44;100869.07;;;19.46;100.00
68712;BME280;55690;51.566;19.198;2023-09-19T05:12:53;100875.50;;;19.63;100.00
68712;BME280;55690;51.566;19.198;2023-09-19T05:16:56;100876.35;;;19.63;100.00
68712;BME280;55690;51.566;19.198;2023-09-19T05:21:03;100875.50;;;19.63;100.00
68712;BME280;55690;51.566;19.198;2023-09-19T05:25:12;100891.69;;;19.66;100.00
68712;BME280;55690;51.566;19.198;2023-09-19T05:29:19;100891.70;;;19.74;100.00
68712;BME280;55690;51.566;19.198;2023-09-19T05:33:21;100892.22;;;19.69;100.00
68712;BME280;55690;51.566;19.198;2023-09-19T05:37:27;100908.41;;;19.72;100.00
68712;BME280;55690;51.566;19.198;2023-09-19T05:41:33;100913.22;;;19.70;100.00
68712;BME280;55690;51.566;19.198;2023-09-19T05:45:40;100906.48;;;19.65;100.00
68712;BME280;55690;51.566;19.198;2023-09-19T05:49:46;100907.05;;;19.76;100.00
68712;BME280;55690;51.566;19.198;2023-09-19T05:53:53;100900.34;;;19.79;100.00
68712;BME280;55690;51.566;19.198;2023-09-19T05:57:58;100899.14;;;19.81;100.00
68712;BME280;55690;51.566;19.198;2023-09-19T06:02:05;100902.59;;;19.83;100.00
68712;BME280;55690;51.566;19.198;2023-09-19T06:06:10;100905.82;;;19.71;100.00
68712;BME280;55690;51.566;19.198;2023-09-19T06:10:16;100902.21;;;19.70;100.00
68712;BME280;55690;51.566;19.198;2023-09-19T06:14:23;100897.03;;;19.67;100.00
68712;BME280;55690;51.566;19.198;2023-09-19T06:18:29;100895.19;;;19.84;100.00
68712;BME280;55690;51.566;19.198;2023-09-19T06:22:35;100902.08;;;19.88;100.00
68712;BME280;55690;51.566;19.198;2023-09-19T06:26:41;100911.91;;;19.90;100.00
68712;BME280;55690;51.566;19.198;2023-09-19T06:30:47;100918.77;;;19.94;100.00
68712;BME280;55690;51.566;19.198;2023-09-19T06:34:54;100919.13;;;20.00;100.00
68712;BME280;55690;51.566;19.198;2023-09-19T06:39:00;100929.46;;;19.98;100.00
68712;BME280;55690;51.566;19.198;2023-09-19T06:43:06;100942.73;;;20.02;100.00
68712;BME280;55690;51.566;19.198;2023-09-19T06:47:12;100956.54;;;20.10;100.00
68712;BME280;55690;51.566;19.198;2023-09-19T06:51:18;100966.20;;;20.14;100.00
68712;BME280;55690;51.566;19.198;2023-09-19T06:55:25;100963.44;;;20.14;100.00
68712;BME280;55690;51.566;19.198;2023-09-19T06:59:31;100979.81;;;20.16;100.00
68712;BME280;55690;51.566;19.198;2023-09-19T07:03:37;100979.30;;;20.20;100.00
68712;BME280;55690;51.566;19.198;2023-09-19T07:07:43;100988.98;;;20.33;100.00
68712;BME280;55690;51.566;19.198;2023-09-19T07:11:49;100997.09;;;20.34;100.00
68712;BME280;55690;51.566;19.198;2023-09-19T07:15:58;101006.19;;;20.18;100.00
68712;BME280;55690;51.566;19.198;2023-09-19T07:20:01;101010.35;;;20.31;100.00
68712;BME280;55690;51.566;19.198;2023-09-19T07:24:11;101013.13;;;20.39;100.00
68712;BME280;55690;51.566;19.198;2023-09-19T07:28:14;101020.38;;;20.40;100.00
68712;BME280;55690;51.566;19.198;2023-09-19T07:32:20;101025.02;;;20.31;100.00
68712;BME280;55690;51.566;19.198;2023-09-19T07:36:26;101028.14;;;20.44;100.00
68712;BME280;55690;51.566;19.198;2023-09-19T07:40:32;101027.11;;;20.45;100.00
68712;BME280;55690;51.566;19.198;2023-09-19T07:44:38;101026.77;;;20.48;100.00
68712;BME280;55690;51.566;19.198;2023-09-19T07:48:44;101028.32;;;20.51;100.00
68712;BME280;55690;51.566;19.198;2023-09-19T07:52:50;101030.39;;;20.49;100.00
68712;BME280;55690;51.566;19.198;2023-09-19T07:56:57;101031.95;;;20.51;100.00
68712;BME280;55690;51.566;19.198;2023-09-19T08:01:07;101035.92;;;20.57;100.00
68712;BME280;55690;51.566;19.198;2023-09-19T08:05:16;101037.13;;;20.63;100.00
68712;BME280;55690;51.566;19.198;2023-09-19T08:09:19;101034.55;;;20.69;100.00
68712;BME280;55690;51.566;19.198;2023-09-19T08:13:25;101038.86;;;20.64;100.00
68712;BME280;55690;51.566;19.198;2023-09-19T08:17:27;101030.73;;;20.86;100.00
68712;BME280;55690;51.566;19.198;2023-09-19T08:21:34;101032.66;;;20.78;100.00
68712;BME280;55690;51.566;19.198;2023-09-19T08:25:40;101027.29;;;20.84;100.00
68712;BME280;55690;51.566;19.198;2023-09-19T08:29:46;101031.94;;;21.16;100.00
68712;BME280;55690;51.566;19.198;2023-09-19T08:33:52;101035.56;;;21.17;100.00
68712;BME280;55690;51.566;19.198;2023-09-19T08:37:58;101036.40;;;21.34;100.00
68712;BME280;55690;51.566;19.198;2023-09-19T08:42:05;101030.19;;;21.32;100.00
68712;BME280;55690;51.566;19.198;2023-09-19T08:46:14;101035.89;;;21.30;100.00
68712;BME280;55690;51.566;19.198;2023-09-19T08:50:28;101034.84;;;21.39;100.00
68712;BME280;55690;51.566;19.198;2023-09-19T08:54:35;101028.98;;;21.34;100.00
68712;BME280;55690;51.566;19.198;2023-09-19T08:58:47;101019.96;;;21.48;100.00
68712;BME280;55690;51.566;19.198;2023-09-19T09:02:50;101021.00;;;21.47;100.00
68712;BME280;55690;51.566;19.198;2023-09-19T09:06:53;101024.76;;;21.63;100.00
68712;BME280;55690;51.566;19.198;2023-09-19T09:10:56;101023.72;;;21.64;100.00
68712;BME280;55690;51.566;19.198;2023-09-19T09:14:58;101021.84;;;21.56;100.00
68712;BME280;55690;51.566;19.198;2023-09-19T09:19:00;101019.05;;;21.64;100.00
68712;BME280;55690;51.566;19.198;2023-09-19T09:23:06;101022.00;;;21.63;100.00
68712;BME280;55690;51.566;19.198;2023-09-19T09:27:12;101023.39;;;21.58;100.00
68712;BME280;55690;51.566;19.198;2023-09-19T09:31:24;101038.13;;;21.82;100.00
68712;BME280;55690;51.566;19.198;2023-09-19T09:35:27;101041.73;;;21.90;100.00
68712;BME280;55690;51.566;19.198;2023-09-19T09:39:31;101040.19;;;21.88;100.00
68712;BME280;55690;51.566;19.198;2023-09-19T09:43:41;101041.91;;;21.89;100.00
68712;BME280;55690;51.566;19.198;2023-09-19T09:47:49;101044.85;;;21.87;100.00
68712;BME280;55690;51.566;19.198;2023-09-19T09:52:03;101047.12;;;21.84;100.00
68712;BME280;55690;51.566;19.198;2023-09-19T09:56:19;101058.11;;;22.08;100.00
68712;BME280;55690;51.566;19.198;2023-09-19T10:00:20;101062.28;;;21.96;100.00
68712;BME280;55690;51.566;19.198;2023-09-19T10:04:28;101073.04;;;21.83;100.00
68712;BME280;55690;51.566;19.198;2023-09-19T10:08:37;101086.13;;;21.97;100.00
68712;BME280;55690;51.566;19.198;2023-09-19T10:12:39;101100.64;;;22.07;100.00
68712;BME280;55690;51.566;19.198;2023-09-19T10:16:46;101098.25;;;21.88;100.00
68712;BME280;55690;51.566;19.198;2023-09-19T10:20:49;101095.58;;;22.11;100.00
68712;BME280;55690;51.566;19.198;2023-09-19T10:24:53;101104.53;;;22.21;100.00
68712;BME280;55690;51.566;19.198;2023-09-19T10:28:55;101101.69;;;22.06;100.00
68712;BME280;55690;51.566;19.198;2023-09-19T10:33:04;101105.49;;;22.05;100.00
68712;BME280;55690;51.566;19.198;2023-09-19T10:37:12;101114.65;;;22.06;100.00
68712;BME280;55690;51.566;19.198;2023-09-19T10:41:16;101111.56;;;21.84;100.00
68712;BME280;55690;51.566;19.198;2023-09-19T10:45:20;101124.73;;;21.66;100.00
68712;BME280;55690;51.566;19.198;2023-09-19T10:49:25;101129.12;;;21.44;100.00
68712;BME280;55690;51.566;19.198;2023-09-19T10:53:29;101123.92;;;21.49;100.00
68712;BME280;55690;51.566;19.198;2023-09-19T10:57:32;101124.63;;;21.35;100.00
68712;BME280;55690;51.566;19.198;2023-09-19T11:06:15;101129.12;;;21.28;100.00
68712;BME280;55690;51.566;19.198;2023-09-19T11:10:43;101141.70;;;21.06;100.00
68712;BME280;55690;51.566;19.198;2023-09-19T11:14:28;101137.06;;;21.31;100.00
68712;BME280;55690;51.566;19.198;2023-09-19T11:23:17;101141.38;;;21.34;100.00
68712;BME280;55690;51.566;19.198;2023-09-19T11:31:44;101135.31;;;21.54;100.00
68712;BME280;55690;51.566;19.198;2023-09-19T11:48:15;101148.39;;;21.77;100.00
68712;BME280;55690;51.566;19.198;2023-09-19T11:52:22;101135.62;;;21.68;100.00
68712;BME280;55690;51.566;19.198;2023-09-19T11:56:26;101140.80;;;21.71;100.00
68712;BME280;55690;51.566;19.198;2023-09-19T12:00:34;101145.27;;;21.80;100.00
68712;BME280;55690;51.566;19.198;2023-09-19T12:04:41;101148.22;;;21.78;100.00
68712;BME280;55690;51.566;19.198;2023-09-19T12:08:46;101144.59;;;21.78;100.00
68712;BME280;55690;51.566;19.198;2023-09-19T12:12:50;101152.88;;;21.78;100.00
68712;BME280;55690;51.566;19.198;2023-09-19T12:16:57;101152.72;;;21.71;100.00
68712;BME280;55690;51.566;19.198;2023-09-19T12:21:04;101157.89;;;21.74;100.00
68712;BME280;55690;51.566;19.198;2023-09-19T12:25:13;101156.00;;;21.67;100.00
68712;BME280;55690;51.566;19.198;2023-09-19T12:29:21;101157.70;;;21.84;100.00
68712;BME280;55690;51.566;19.198;2023-09-19T12:33:26;101160.29;;;22.02;99.64
68712;BME280;55690;51.566;19.198;2023-09-19T12:37:28;101162.30;;;22.16;100.00
68712;BME280;55690;51.566;19.198;2023-09-19T12:41:31;101157.60;;;22.24;97.68
68712;BME280;55690;51.566;19.198;2023-09-19T12:45:33;101157.42;;;22.26;96.72
68712;BME280;55690;51.566;19.198;2023-09-19T12:53:57;101156.59;;;22.17;97.15
68712;BME280;55690;51.566;19.198;2023-09-19T13:02:10;101162.89;;;21.87;95.22
68712;BME280;55690;51.566;19.198;2023-09-19T13:10:33;101162.18;;;21.93;94.00
68712;BME280;55690;51.566;19.198;2023-09-19T13:14:37;101161.51;;;21.83;92.77
68712;BME280;55690;51.566;19.198;2023-09-19T13:18:53;101159.59;;;21.91;93.77
68712;BME280;55690;51.566;19.198;2023-09-19T13:22:58;101162.34;;;22.08;94.36
68712;BME280;55690;51.566;19.198;2023-09-19T13:27:06;101165.97;;;22.00;91.91
68712;BME280;55690;51.566;19.198;2023-09-19T13:31:09;101172.50;;;22.15;92.86
68712;BME280;55690;51.566;19.198;2023-09-19T13:35:13;101162.34;;;22.08;89.73
68712;BME280;55690;51.566;19.198;2023-09-19T13:41:36;101159.17;;;22.19;90.93
68712;BME280;55690;51.566;19.198;2023-09-19T13:45:41;101154.84;;;22.24;90.26
68712;BME280;55690;51.566;19.198;2023-09-19T13:49:47;101156.17;;;22.37;88.40
68712;BME280;55690;51.566;19.198;2023-09-19T13:53:54;101152.56;;;22.28;84.73
68712;BME280;55690;51.566;19.198;2023-09-19T13:58:00;101147.93;;;22.20;82.71
68712;BME280;55690;51.566;19.198;2023-09-19T14:02:06;101154.95;;;22.39;82.37
68712;BME280;55690;51.566;19.198;2023-09-19T14:06:13;101158.07;;;22.36;82.22
68712;BME280;55690;51.566;19.198;2023-09-19T14:10:18;101155.12;;;22.38;82.01
68712;BME280;55690;51.566;19.198;2023-09-19T14:14:24;101141.33;;;22.30;81.68
68712;BME280;55690;51.566;19.198;2023-09-19T14:18:32;101151.23;;;22.16;82.79
68712;BME280;55690;51.566;19.198;2023-09-19T14:22:37;101145.58;;;22.09;82.44
68712;BME280;55690;51.566;19.198;2023-09-19T14:26:43;101149.38;;;22.08;83.88
68712;BME280;55690;51.566;19.198;2023-09-19T14:30:49;101153.00;;;22.01;83.46
68712;BME280;55690;51.566;19.198;2023-09-19T14:34:55;101150.23;;;22.01;83.07
68712;BME280;55690;51.566;19.198;2023-09-19T14:39:02;101156.15;;;21.89;83.07
68712;BME280;55690;51.566;19.198;2023-09-19T14:43:07;101158.41;;;21.78;82.40
68712;BME280;55690;51.566;19.198;2023-09-19T14:47:14;101154.57;;;21.95;82.42
68712;BME280;55690;51.566;19.198;2023-09-19T14:51:20;101161.32;;;21.93;82.58
68712;BME280;55690;51.566;19.198;2023-09-19T14:55:26;101161.65;;;21.98;82.79
68712;BME280;55690;51.566;19.198;2023-09-19T14:59:33;101165.14;;;21.83;84.54
68712;BME280;55690;51.566;19.198;2023-09-19T15:03:42;101164.29;;;21.75;83.47
68712;BME280;55690;51.566;19.198;2023-09-19T15:07:44;101173.61;;;21.82;83.69
68712;BME280;55690;51.566;19.198;2023-09-19T15:11:53;101174.13;;;21.77;82.42
68712;BME280;55690;51.566;19.198;2023-09-19T15:16:07;101179.31;;;21.80;83.93
68712;BME280;55690;51.566;19.198;2023-09-19T15:20:12;101191.07;;;21.66;84.67
68712;BME280;55690;51.566;19.198;2023-09-19T15:24:15;101192.66;;;21.61;84.49
68712;BME280;55690;51.566;19.198;2023-09-19T15:28:19;101195.26;;;21.54;85.24
68712;BME280;55690;51.566;19.198;2023-09-19T15:32:24;101193.84;;;21.66;85.27
68712;BME280;55690;51.566;19.198;2023-09-19T15:36:28;101192.66;;;21.44;84.35
68712;BME280;55690;51.566;19.198;2023-09-19T15:40:34;101201.81;;;21.45;87.41
68712;BME280;55690;51.566;19.198;2023-09-19T15:44:40;101208.20;;;21.37;86.32
68712;BME280;55690;51.566;19.198;2023-09-19T15:48:46;101214.94;;;21.51;86.25
68712;BME280;55690;51.566;19.198;2023-09-19T15:52:53;101215.09;;;21.25;86.48
68712;BME280;55690;51.566;19.198;2023-09-19T15:56:59;101230.80;;;21.24;87.17
68712;BME280;55690;51.566;19.198;2023-09-19T16:01:08;101234.75;;;21.14;88.42
68712;BME280;55690;51.566;19.198;2023-09-19T16:05:11;101239.91;;;21.09;87.17
68712;BME280;55690;51.566;19.198;2023-09-19T16:09:17;101245.08;;;21.04;90.42
68712;BME280;55690;51.566;19.198;2023-09-19T16:13:23;101254.70;;;20.91;91.66
68712;BME280;55690;51.566;19.198;2023-09-19T16:17:29;101253.10;;;20.81;92.31
68712;BME280;55690;51.566;19.198;2023-09-19T16:21:37;101257.39;;;20.67;94.36
68712;BME280;55690;51.566;19.198;2023-09-19T16:25:42;101261.43;;;20.47;95.15
68712;BME280;55690;51.566;19.198;2023-09-19T16:29:48;101258.09;;;20.35;94.96
68712;BME280;55690;51.566;19.198;2023-09-19T16:33:54;101261.45;;;20.21;95.78
68712;BME280;55690;51.566;19.198;2023-09-19T16:38:00;101272.20;;;20.06;95.58
68712;BME280;55690;51.566;19.198;2023-09-19T16:42:06;101275.57;;;19.92;95.51
68712;BME280;55690;51.566;19.198;2023-09-19T16:46:13;101282.99;;;19.74;96.54
68712;BME280;55690;51.566;19.198;2023-09-19T16:50:18;101286.46;;;19.58;97.23
68712;BME280;55690;51.566;19.198;2023-09-19T16:54:25;101288.12;;;19.51;96.99
68712;BME280;55690;51.566;19.198;2023-09-19T16:58:31;101289.75;;;19.26;98.62
68712;BME280;55690;51.566;19.198;2023-09-19T17:02:37;101292.17;;;19.11;99.26
68712;BME280;55690;51.566;19.198;2023-09-19T17:06:43;101302.09;;;19.04;99.26
68712;BME280;55690;51.566;19.198;2023-09-19T17:10:49;101311.57;;;18.92;100.00
68712;BME280;55690;51.566;19.198;2023-09-19T17:14:55;101309.02;;;18.81;99.69
68712;BME280;55690;51.566;19.198;2023-09-19T17:19:02;101314.98;;;18.76;99.30
68712;BME280;55690;51.566;19.198;2023-09-19T17:23:08;101319.38;;;18.59;100.00
68712;BME280;55690;51.566;19.198;2023-09-19T17:27:14;101323.61;;;18.54;100.00
68712;BME280;55690;51.566;19.198;2023-09-19T17:31:23;101324.36;;;18.46;100.00
68712;BME280;55690;51.566;19.198;2023-09-19T17:35:26;101330.45;;;18.40;100.00
68712;BME280;55690;51.566;19.198;2023-09-19T17:39:32;101339.00;;;18.37;100.00
68712;BME280;55690;51.566;19.198;2023-09-19T17:43:38;101341.33;;;18.32;100.00
68712;BME280;55690;51.566;19.198;2023-09-19T17:47:45;101350.31;;;18.24;100.00
68712;BME280;55690;51.566;19.198;2023-09-19T17:51:51;101350.66;;;18.12;100.00
68712;BME280;55690;51.566;19.198;2023-09-19T17:56:00;101358.61;;;18.05;100.00
68712;BME280;55690;51.566;19.198;2023-09-19T18:00:04;101360.06;;;18.00;100.00
68712;BME280;55690;51.566;19.198;2023-09-19T18:04:09;101368.60;;;17.87;100.00
68712;BME280;55690;51.566;19.198;2023-09-19T18:08:16;101361.94;;;17.80;100.00
68712;BME280;55690;51.566;19.198;2023-09-19T18:12:22;101372.82;;;17.72;100.00
68712;BME280;55690;51.566;19.198;2023-09-19T18:16:28;101374.21;;;17.56;100.00
68712;BME280;55690;51.566;19.198;2023-09-19T18:20:34;101378.25;;;17.52;100.00
68712;BME280;55690;51.566;19.198;2023-09-19T18:24:40;101375.35;;;17.44;100.00
68712;BME280;55690;51.566;19.198;2023-09-19T18:28:47;101378.94;;;17.35;100.00
68712;BME280;55690;51.566;19.198;2023-09-19T18:32:52;101382.70;;;17.24;100.00
68712;BME280;55690;51.566;19.198;2023-09-19T18:36:59;101384.57;;;17.24;100.00
68712;BME280;55690;51.566;19.198;2023-09-19T18:41:06;101379.81;;;17.26;100.00
68712;BME280;55690;51.566;19.198;2023-09-19T18:45:11;101387.46;;;17.22;100.00
68712;BME280;55690;51.566;19.198;2023-09-19T18:49:17;101385.38;;;17.05;100.00
68712;BME280;55690;51.566;19.198;2023-09-19T18:53:23;101394.16;;;16.89;100.00
68712;BME280;55690;51.566;19.198;2023-09-19T18:57:29;101397.30;;;16.85;100.00
68712;BME280;55690;51.566;19.198;2023-09-19T19:01:36;101396.94;;;16.69;100.00
68712;BME280;55690;51.566;19.198;2023-09-19T19:05:42;101401.92;;;16.63;100.00
68712;BME280;55690;51.566;19.198;2023-09-19T19:09:48;101408.68;;;16.59;100.00
68712;BME280;55690;51.566;19.198;2023-09-19T19:13:54;101409.09;;;16.55;100.00
68712;BME280;55690;51.566;19.198;2023-09-19T19:18:00;101408.02;;;16.46;100.00
68712;BME280;55690;51.566;19.198;2023-09-19T19:22:07;101407.45;;;16.43;100.00
68712;BME280;55690;51.566;19.198;2023-09-19T19:26:13;101409.73;;;16.38;100.00
68712;BME280;55690;51.566;19.198;2023-09-19T19:30:19;101415.47;;;16.35;100.00
68712;BME280;55690;51.566;19.198;2023-09-19T19:34:25;101418.28;;;16.23;100.00
68712;BME280;55690;51.566;19.198;2023-09-19T19:38:31;101417.41;;;16.23;100.00
68712;BME280;55690;51.566;19.198;2023-09-19T19:42:37;101416.80;;;16.19;100.00
68712;BME280;55690;51.566;19.198;2023-09-19T19:46:44;101421.33;;;16.09;100.00
68712;BME280;55690;51.566;19.198;2023-09-19T19:50:50;101428.77;;;15.98;100.00
68712;BME280;55690;51.566;19.198;2023-09-19T19:54:56;101433.90;;;15.91;100.00
68712;BME280;55690;51.566;19.198;2023-09-19T19:59:02;101437.03;;;15.86;100.00
68712;BME280;55690;51.566;19.198;2023-09-19T20:03:09;101432.41;;;15.87;100.00
68712;BME280;55690;51.566;19.198;2023-09-19T20:07:14;101443.50;;;15.85;100.00
68712;BME280;55690;51.566;19.198;2023-09-19T20:11:20;101446.85;;;15.89;100.00
68712;BME280;55690;51.566;19.198;2023-09-19T20:15:30;101443.59;;;15.95;100.00
68712;BME280;55690;51.566;19.198;2023-09-19T20:19:34;101449.81;;;15.97;100.00
68712;BME280;55690;51.566;19.198;2023-09-19T20:23:40;101449.99;;;16.05;100.00
68712;BME280;55690;51.566;19.198;2023-09-19T20:27:45;101460.83;;;16.07;100.00
68712;BME280;55690;51.566;19.198;2023-09-19T20:31:52;101460.30;;;16.13;100.00
68712;BME280;55690;51.566;19.198;2023-09-19T20:35:58;101463.17;;;16.11;100.00
68712;BME280;55690;51.566;19.198;2023-09-19T20:40:05;101460.43;;;16.11;100.00
68712;BME280;55690;51.566;19.198;2023-09-19T20:44:11;101463.69;;;16.05;100.00
68712;BME280;55690;51.566;19.198;2023-09-19T20:48:16;101472.91;;;16.04;100.00
68712;BME280;55690;51.566;19.198;2023-09-19T20:52:22;101475.74;;;16.14;100.00
68712;BME280;55690;51.566;19.198;2023-09-19T20:56:28;101475.48;;;16.17;100.00
68712;BME280;55690;51.566;19.198;2023-09-19T21:00:34;101477.61;;;16.13;100.00
68712;BME280;55690;51.566;19.198;2023-09-19T21:04:41;101487.22;;;16.08;100.00
68712;BME280;55690;51.566;19.198;2023-09-19T21:08:47;101488.58;;;16.13;100.00
68712;BME280;55690;51.566;19.198;2023-09-19T21:12:53;101491.09;;;16.05;100.00
68712;BME280;55690;51.566;19.198;2023-09-19T21:16:59;101499.66;;;16.12;100.00
68712;BME280;55690;51.566;19.198;2023-09-19T21:21:06;101490.35;;;16.03;100.00
68712;BME280;55690;51.566;19.198;2023-09-19T21:25:14;101494.63;;;15.96;100.00
68712;BME280;55690;51.566;19.198;2023-09-19T21:29:18;101504.24;;;15.90;100.00
68712;BME280;55690;51.566;19.198;2023-09-19T21:33:24;101500.50;;;15.91;100.00
68712;BME280;55690;51.566;19.198;2023-09-19T21:37:30;101499.40;;;15.83;100.00
68712;BME280;55690;51.566;19.198;2023-09-19T21:41:36;101500.66;;;15.79;100.00
68712;BME280;55690;51.566;19.198;2023-09-19T21:45:45;101504.27;;;15.79;100.00
68712;BME280;55690;51.566;19.198;2023-09-19T21:49:49;101497.05;;;15.78;100.00
68712;BME280;55690;51.566;19.198;2023-09-19T21:53:58;101502.91;;;15.74;100.00
68712;BME280;55690;51.566;19.198;2023-09-19T21:58:04;101497.17;;;15.77;100.00
68712;BME280;55690;51.566;19.198;2023-09-19T22:02:07;101489.95;;;15.76;100.00
68712;BME280;55690;51.566;19.198;2023-09-19T22:06:14;101502.29;;;15.70;100.00